Williams Lake Airport
CYWL : rendu visible

Aérodrome :











RETROUVEZ-NOUS SUR...

 
LOGIN :

S'inscrire | Disclaimer

   EN    FR    IT 

 









Légende :    VFR   VFR Marginal   IFR   IFR Intensif   IFR Très Intensif
Visi : 
Plafond : 
>= 8 km
>= 3000ft
5 à 8 km
1000 à 3000 ft
1500m à 5 km
500 à 1000 ft
800 à 1500m
200 à 500 ft
< 800m
< 200 ft
Symboles :   Orages  Brouillard  Fortes neiges  Fortes précipitations  Vent > 20 kt






- Altitude de l'aérodrome : 3085 ft
- Code IATA : YWL


CYWL - Williams Lake

DERNIER METAR :
  • 242200Z 13009KT 15SM BKN120 03/01 A2963 RMK AC7 SLP064

METARs EXPIRÉS :
  • 242100Z 12009KT 15SM BKN120 03/00 A2963 RMK AC7 SLP063
  • 242000Z 12008KT 15SM FEW012 FEW060 BKN100 03/00 A2963 RMK CF1SC1AC7 CF TR SC TR SLP062

TAF TAF CYWL
Valide du 24 à 19h jusqu'au 25 à 07h UTC


241849Z 2419/2507 12010KT P6SM SCT080 BKN120
TEMPO 2419/2503 BKN080 BKN120
FM250300 12008KT P6SM FEW150 RMK NXT FCST BY 250100Z



MET'MAP, la Météo Aéronautique d'un coup d'oeil ! - Copyright ORBIFLY Décembre 2007 - Disclaimer

ORBIFLY MET'MAP TEAM :

Programmation & Développement : Alexandra Zaïnal
Sur une idée originale de : Baudouin d'Aumeries
Assistance à la programmation : Marc-Olivier Méhu
Soutien technique & logistique : Manuel Goepfert

Contact : metmap@orbifly.com




SOURCES & CREDITS :

   NOAA       Earth
Advisory